KSUW

Details ICAO KSUW
Name Richard I Bong
Region United States
Timezone America/Chicago (UTC-6.0)
Plans Departing 4
Arriving 1
Stats Elevation 674 ft / 205 m (AMSL)
Location 46.688994° -92.094684°
Runways 2
Magnetic Variation 0.992° W
Sunrise 2017-12-16 13:48:31 UTC / 2017-12-16 07:48:31 Local
Sunset 2017-12-16 22:22:30 UTC / 2017-12-16 16:22:30 Local
Advertisement - Login to hide

Runways

ID Width Length Bearing (true) Bearing (mag) Surface Threshold Offset Overrun Length
03 75 ft / 23 m 5,105 ft / 1,556 m 36.80° 37.79° Asphalt 0 ft / 0 m 0 ft / 0 m
13 75 ft / 23 m 4,004 ft / 1,220 m 140.23° 141.22° Asphalt 0 ft / 0 m 0 ft / 0 m
21 75 ft / 23 m 5,105 ft / 1,556 m 216.81° 217.80° Asphalt 0 ft / 0 m 0 ft / 0 m
31 75 ft / 23 m 4,004 ft / 1,220 m 320.24° 321.23° Asphalt 0 ft / 0 m 0 ft / 0 m

Map

Weather


0- 5 10 15 20 25 30 35+ Temperature / ° C

Clouds and Precipitation
Forecast for 2017-12-17 00:00 UTC. Updated an hour ago

Ground ~20,000 ft ~40,000 ft Winds

METAR

KSUW 170035Z AUTO 00000KT 10SM OVC022 M06/M11 A3010 RMK AO2 T10561110

TAF

Not found

Frequencies

Recorded 118.87 MHz AWOS 3
Clearance 124.80 MHz CLNC DEL
Unicom 122.70 MHz CTAF/UNICOM
Approach 125.45 MHz DULUTH APP/DEP
Warning: Do not use this data for real-world aviation or navigation. No guarantee of current accuracy is given.